Time;durP1;ratioP1;P1;durP2;ratioP2;P2;SDS_P1;SDS_P2;PMS_P1;PMS_P2;Temp;Humidity;BMP_temperature;BMP_pressure;BME280_temperature;BME280_humidity;BME280_pressure;Samples;Min_cycle;Max_cycle;Signal;HPM_P1;HPM_P2
2022/05/05 00:02:02;;;;;;;0.50;0.40;;;10.40;63.80;;;;;;5094866;28;20408;-71
2022/05/05 00:04:27;;;;;;;1.00;0.70;;;10.40;63.80;;;;;;5112572;28;20035;-71
2022/05/05 00:06:53;;;;;;;0.40;0.40;;;10.30;63.70;;;;;;5094267;28;20073;-72
2022/05/05 00:09:19;;;;;;;0.40;0.40;;;10.40;63.70;;;;;;5094620;28;20036;-71
2022/05/05 00:14:24;;;;;;;0.75;0.65;;;10.40;63.80;;;;;;5112395;28;20062;-71
2022/05/05 00:16:59;;;;;;;0.50;0.50;;;10.40;63.80;;;;;;5077684;28;20040;-71
2022/05/05 00:19:26;;;;;;;0.50;0.50;;;10.40;63.80;;;;;;5110440;28;20035;-72
2022/05/05 00:21:52;;;;;;;0.70;0.40;;;10.40;63.80;;;;;;5093894;28;20530;-72
2022/05/05 00:24:18;;;;;;;0.70;0.50;;;10.50;63.90;;;;;;5112767;28;20044;-72
2022/05/05 00:26:45;;;;;;;0.50;0.50;;;10.50;64.00;;;;;;5115929;28;20046;-72
2022/05/05 00:29:11;;;;;;;0.55;0.40;;;10.40;63.90;;;;;;5115841;28;20042;-72
2022/05/05 00:31:37;;;;;;;0.32;0.32;;;10.40;64.10;;;;;;5097339;28;20093;-72
2022/05/05 00:34:03;;;;;;;1.42;0.32;;;10.40;64.10;;;;;;5115954;28;20040;-72
2022/05/05 00:36:28;;;;;;;0.40;0.40;;;10.40;64.20;;;;;;5098245;28;20036;-72
2022/05/05 00:38:54;;;;;;;0.40;0.40;;;10.40;64.30;;;;;;5116350;28;20377;-72
2022/05/05 00:41:20;;;;;;;0.80;0.40;;;10.40;64.30;;;;;;5116074;28;20035;-72
2022/05/05 00:43:47;;;;;;;0.68;0.40;;;10.40;64.30;;;;;;5097902;28;20492;-72
2022/05/05 00:46:12;;;;;;;0.50;0.40;;;10.50;64.50;;;;;;5097678;28;20114;-72
2022/05/05 00:48:38;;;;;;;0.52;0.47;;;10.40;64.40;;;;;;5115899;28;20126;-72
2022/05/05 00:51:04;;;;;;;0.57;0.50;;;10.50;64.50;;;;;;5115632;28;20040;-72
2022/05/05 00:53:30;;;;;;;0.43;0.43;;;10.40;64.50;;;;;;5097342;28;20039;-72
2022/05/05 00:55:59;;;;;;;0.30;0.30;;;10.30;64.50;;;;;;5115437;28;20043;-72
2022/05/05 00:58:27;;;;;;;0.50;0.40;;;10.40;64.70;;;;;;5116043;28;20035;-72
2022/05/05 01:00:54;;;;;;;0.73;0.30;;;10.40;64.70;;;;;;5097427;28;20044;-72
2022/05/05 01:03:20;;;;;;;0.40;0.40;;;10.40;64.70;;;;;;5115363;28;20039;-72
2022/05/05 01:05:46;;;;;;;0.60;0.57;;;10.30;64.70;;;;;;5115608;28;20058;-72
2022/05/05 01:08:13;;;;;;;0.88;0.50;;;10.40;64.90;;;;;;5115304;28;20043;-72
2022/05/05 01:10:38;;;;;;;0.50;0.50;;;10.30;64.90;;;;;;5097543;28;20070;-72
2022/05/05 01:13:04;;;;;;;0.60;0.45;;;10.30;64.90;;;;;;5115182;28;20430;-72
2022/05/05 01:15:30;;;;;;;0.40;0.40;;;10.30;65.00;;;;;;5115896;28;20091;-72
2022/05/05 01:17:56;;;;;;;0.65;0.43;;;10.30;65.00;;;;;;5115725;28;20068;-72
2022/05/05 01:20:23;;;;;;;1.45;0.80;;;10.30;65.00;;;;;;5115176;28;20044;-72
2022/05/05 01:22:50;;;;;;;0.80;0.40;;;10.30;65.10;;;;;;5115158;28;20441;-72
2022/05/05 01:30:44;;;;;;;2.10;0.60;;;10.20;65.30;;;;;;5114848;28;20067;-72
2022/05/05 01:33:12;;;;;;;0.50;0.50;;;10.10;65.40;;;;;;5115026;28;20382;-72
2022/05/05 01:35:39;;;;;;;0.68;0.45;;;10.10;65.50;;;;;;5114498;28;20504;-72
2022/05/05 01:38:07;;;;;;;0.60;0.43;;;10.20;65.60;;;;;;5096275;28;20042;-73
2022/05/05 01:40:35;;;;;;;0.77;0.60;;;10.00;65.60;;;;;;5114854;28;20039;-72
2022/05/05 01:43:02;;;;;;;0.50;0.40;;;10.00;65.70;;;;;;5096854;28;20040;-72
2022/05/05 01:45:29;;;;;;;0.50;0.50;;;10.00;65.80;;;;;;5114786;28;20034;-72
2022/05/05 01:47:56;;;;;;;0.40;0.40;;;9.90;65.90;;;;;;5114875;28;20048;-72
2022/05/05 01:50:22;;;;;;;0.90;0.60;;;9.90;66.00;;;;;;5114778;28;20434;-72
2022/05/05 01:52:48;;;;;;;1.10;0.40;;;9.80;66.00;;;;;;5114510;28;20074;-72
2022/05/05 01:55:14;;;;;;;1.30;0.60;;;9.80;66.10;;;;;;5114648;28;20071;-72
2022/05/05 01:57:40;;;;;;;0.47;0.40;;;9.80;66.20;;;;;;5115104;28;20078;-72
2022/05/05 02:00:06;;;;;;;1.10;0.55;;;9.80;66.30;;;;;;5114537;28;20038;-72
2022/05/05 02:02:32;;;;;;;0.52;0.50;;;9.90;66.40;;;;;;5096939;28;20051;-72
2022/05/05 02:04:58;;;;;;;0.55;0.50;;;9.70;66.40;;;;;;5114614;28;20035;-72
2022/05/05 02:07:24;;;;;;;0.65;0.55;;;9.80;66.50;;;;;;5096180;28;20052;-72
2022/05/05 02:09:50;;;;;;;0.80;0.60;;;9.70;66.60;;;;;;5114976;28;20035;-72
2022/05/05 02:12:16;;;;;;;0.50;0.50;;;9.60;66.60;;;;;;5114077;28;20039;-72
2022/05/05 02:14:41;;;;;;;0.47;0.47;;;9.60;66.70;;;;;;5114079;28;20039;-72
2022/05/05 02:17:10;;;;;;;0.73;0.55;;;9.60;66.70;;;;;;5096202;28;20168;-72
2022/05/05 02:19:35;;;;;;;0.47;0.47;;;9.60;66.80;;;;;;5114137;28;20481;-72
2022/05/05 02:22:02;;;;;;;0.82;0.50;;;9.60;66.90;;;;;;5114230;28;20166;-72
2022/05/05 02:24:28;;;;;;;0.80;0.60;;;9.60;67.00;;;;;;5095699;28;20047;-72
2022/05/05 02:26:54;;;;;;;0.40;0.40;;;9.50;67.60;;;;;;5114004;28;20081;-72
2022/05/05 02:29:19;;;;;;;0.40;0.40;;;9.60;67.20;;;;;;5114181;28;20574;-72
2022/05/05 02:31:45;;;;;;;0.55;0.55;;;9.40;67.10;;;;;;5114154;28;20046;-72
2022/05/05 02:34:12;;;;;;;0.40;0.40;;;9.40;67.20;;;;;;5114127;28;20046;-72
2022/05/05 02:39:19;;;;;;;0.90;0.60;;;9.30;67.30;;;;;;5113859;28;20055;-72
2022/05/05 02:41:45;;;;;;;0.57;0.52;;;9.30;67.40;;;;;;5113464;28;20040;-72
2022/05/05 02:44:11;;;;;;;0.90;0.60;;;9.30;67.50;;;;;;5095542;28;20050;-72
2022/05/05 02:46:37;;;;;;;0.80;0.70;;;9.20;67.50;;;;;;5113622;28;20127;-72
2022/05/05 02:49:03;;;;;;;0.60;0.60;;;9.20;67.60;;;;;;5113883;28;20094;-72
2022/05/05 02:51:28;;;;;;;1.50;0.47;;;9.20;67.70;;;;;;5096198;28;20043;-72
2022/05/05 02:56:30;;;;;;;0.85;0.50;;;9.10;67.80;;;;;;5113451;28;20468;-72
2022/05/05 02:58:56;;;;;;;1.52;0.60;;;9.10;67.90;;;;;;5095485;28;20059;-72
2022/05/05 03:01:22;;;;;;;1.25;0.52;;;9.00;67.90;;;;;;5095170;28;20040;-72
2022/05/05 03:03:48;;;;;;;0.95;0.68;;;9.00;68.00;;;;;;5113995;28;20044;-72
2022/05/05 03:06:14;;;;;;;0.90;0.60;;;9.00;68.10;;;;;;5078604;28;20048;-72
2022/05/05 03:08:40;;;;;;;0.82;0.50;;;8.90;68.20;;;;;;5095261;28;20075;-73
2022/05/05 03:11:06;;;;;;;1.23;0.50;;;8.90;68.20;;;;;;5095363;28;20138;-72
2022/05/05 03:13:32;;;;;;;0.70;0.50;;;8.90;68.30;;;;;;5113360;28;20139;-72
2022/05/05 03:15:58;;;;;;;0.40;0.40;;;8.90;68.40;;;;;;5113249;28;20035;-72
2022/05/05 03:18:23;;;;;;;0.47;0.47;;;8.80;68.40;;;;;;5113842;28;20046;-72
2022/05/05 03:20:49;;;;;;;0.30;0.30;;;8.80;68.50;;;;;;5113788;28;20035;-72
2022/05/05 03:23:15;;;;;;;0.75;0.50;;;8.80;68.50;;;;;;5113680;28;20489;-72
2022/05/05 03:25:40;;;;;;;0.70;0.45;;;8.80;68.40;;;;;;5113084;28;20036;-72
2022/05/05 03:28:06;;;;;;;0.40;0.40;;;8.80;68.50;;;;;;5113055;28;20104;-72
2022/05/05 03:30:32;;;;;;;0.50;0.45;;;8.90;68.70;;;;;;5113195;28;20071;-72
2022/05/05 03:32:57;;;;;;;0.73;0.50;;;8.80;68.70;;;;;;5094762;28;20131;-72
2022/05/05 03:35:23;;;;;;;0.98;0.50;;;8.80;68.70;;;;;;5112824;28;20054;-72
2022/05/05 03:37:49;;;;;;;0.73;0.65;;;8.70;68.80;;;;;;5094757;28;20470;-72
2022/05/05 03:40:15;;;;;;;0.98;0.68;;;8.60;68.80;;;;;;5113005;28;20127;-72
2022/05/05 03:42:40;;;;;;;0.43;0.43;;;8.70;68.90;;;;;;5113081;28;20036;-72
2022/05/05 03:45:06;;;;;;;0.50;0.50;;;8.70;69.00;;;;;;5113063;28;20469;-72
2022/05/05 03:47:33;;;;;;;0.40;0.40;;;8.70;69.00;;;;;;5094797;28;20039;-72
2022/05/05 03:49:58;;;;;;;0.80;0.60;;;8.70;69.10;;;;;;5113037;28;20039;-72
2022/05/05 03:52:24;;;;;;;0.38;0.38;;;8.70;69.20;;;;;;5112688;28;20640;-72
2022/05/05 03:54:50;;;;;;;0.50;0.35;;;8.60;69.20;;;;;;5112497;28;20146;-72
2022/05/05 03:57:15;;;;;;;0.50;0.50;;;8.70;69.30;;;;;;5112664;28;20131;-72
2022/05/05 03:59:41;;;;;;;1.42;0.40;;;8.60;69.20;;;;;;5111488;28;20043;-72
2022/05/05 04:02:07;;;;;;;0.40;0.40;;;8.60;69.20;;;;;;5094484;28;20039;-72
2022/05/05 04:04:33;;;;;;;0.47;0.47;;;8.50;69.20;;;;;;5112863;28;20042;-73
2022/05/05 04:06:58;;;;;;;1.85;0.82;;;8.50;69.40;;;;;;5113305;28;20546;-72
2022/05/05 04:09:24;;;;;;;0.73;0.50;;;8.60;69.50;;;;;;5095056;28;20046;-72
2022/05/05 04:11:50;;;;;;;0.50;0.50;;;8.60;69.50;;;;;;5112854;28;20079;-72
2022/05/05 04:14:16;;;;;;;0.57;0.50;;;8.60;69.60;;;;;;5112518;28;20047;-72
2022/05/05 04:16:43;;;;;;;0.43;0.40;;;8.50;69.60;;;;;;5113033;28;20500;-72
2022/05/05 04:19:09;;;;;;;0.52;0.50;;;8.60;69.60;;;;;;5112618;28;20046;-72
2022/05/05 04:21:35;;;;;;;1.42;0.63;;;8.60;69.60;;;;;;5113239;28;20040;-72
2022/05/05 04:24:01;;;;;;;1.55;0.55;;;8.60;69.60;;;;;;5094196;28;20489;-72
2022/05/05 04:26:28;;;;;;;0.82;0.50;;;8.50;69.60;;;;;;5094380;28;20055;-72
2022/05/05 04:28:56;;;;;;;0.55;0.50;;;8.60;70.30;;;;;;5112969;28;20043;-72
2022/05/05 04:31:23;;;;;;;0.55;0.52;;;8.70;69.70;;;;;;5094358;28;20039;-74
2022/05/05 04:33:49;;;;;;;0.50;0.40;;;8.60;69.50;;;;;;5094140;28;20051;-74
2022/05/05 04:36:15;;;;;;;0.30;0.30;;;8.70;69.50;;;;;;5112326;28;20032;-71
2022/05/05 04:38:41;;;;;;;0.55;0.35;;;8.90;69.40;;;;;;5112712;28;20043;-74
2022/05/05 04:41:07;;;;;;;0.47;0.47;;;8.90;69.40;;;;;;5112370;28;20044;-72
2022/05/05 04:43:33;;;;;;;0.60;0.50;;;9.00;69.40;;;;;;5112884;28;20036;-73
2022/05/05 04:45:59;;;;;;;0.38;0.38;;;9.00;69.50;;;;;;5112220;28;20043;-73
2022/05/05 04:48:25;;;;;;;0.65;0.40;;;9.00;69.40;;;;;;5112839;28;20392;-73
2022/05/05 04:50:51;;;;;;;0.80;0.60;;;9.00;69.40;;;;;;5112385;28;20479;-73
2022/05/05 04:53:16;;;;;;;0.55;0.40;;;9.10;69.40;;;;;;5112608;28;20485;-73
2022/05/05 04:55:42;;;;;;;0.30;0.30;;;9.10;69.40;;;;;;5112411;28;20039;-73
2022/05/05 04:58:08;;;;;;;0.50;0.50;;;9.10;69.50;;;;;;5094298;28;20062;-73
2022/05/05 05:00:35;;;;;;;0.57;0.45;;;9.10;69.50;;;;;;5093853;28;20069;-72
2022/05/05 05:03:02;;;;;;;0.45;0.43;;;9.10;69.50;;;;;;5112310;28;20067;-73
2022/05/05 05:05:27;;;;;;;0.52;0.47;;;9.20;69.60;;;;;;5112147;28;20610;-72
2022/05/05 05:07:53;;;;;;;0.30;0.30;;;9.20;69.60;;;;;;5112768;28;20127;-73
2022/05/05 05:10:19;;;;;;;0.60;0.60;;;9.30;69.60;;;;;;5112825;28;20046;-73
2022/05/05 05:12:44;;;;;;;1.50;0.70;;;9.30;69.60;;;;;;5080457;28;20039;-73
2022/05/05 05:15:10;;;;;;;1.10;0.70;;;9.30;69.60;;;;;;5115645;28;20043;-73
2022/05/05 05:17:36;;;;;;;0.50;0.50;;;9.30;69.60;;;;;;5097111;28;20130;-73
2022/05/05 05:20:03;;;;;;;0.40;0.40;;;9.40;69.70;;;;;;5115325;28;20396;-73
2022/05/05 05:22:29;;;;;;;0.50;0.50;;;9.40;69.70;;;;;;5115176;28;20046;-73
2022/05/05 05:24:55;;;;;;;0.82;0.57;;;9.40;69.70;;;;;;5115919;28;20040;-73
2022/05/05 05:27:21;;;;;;;0.63;0.50;;;9.40;69.70;;;;;;5096807;28;20044;-73
2022/05/05 05:29:47;;;;;;;0.50;0.50;;;9.50;69.80;;;;;;5115293;28;20043;-73
2022/05/05 05:32:12;;;;;;;1.13;0.40;;;9.50;69.80;;;;;;5096836;28;20042;-73
2022/05/05 05:34:38;;;;;;;0.60;0.60;;;9.50;69.80;;;;;;5115278;28;20093;-73
2022/05/05 05:37:04;;;;;;;0.55;0.50;;;9.60;69.80;;;;;;5115770;28;20573;-73
2022/05/05 05:39:30;;;;;;;0.40;0.40;;;9.60;69.80;;;;;;5115137;28;20035;-72
2022/05/05 05:41:57;;;;;;;1.10;0.60;;;9.60;69.80;;;;;;5115198;28;20046;-73
2022/05/05 05:44:23;;;;;;;0.65;0.50;;;9.60;69.80;;;;;;5115015;28;20051;-73
2022/05/05 05:46:48;;;;;;;0.50;0.50;;;9.60;69.80;;;;;;5115127;28;20439;-72
2022/05/05 05:49:14;;;;;;;0.60;0.50;;;9.70;69.90;;;;;;5115046;28;20058;-73
2022/05/05 05:51:41;;;;;;;0.75;0.55;;;9.70;69.90;;;;;;5115330;28;20088;-73
2022/05/05 05:54:07;;;;;;;0.88;0.50;;;9.70;69.80;;;;;;5114974;28;20083;-72
2022/05/05 05:56:33;;;;;;;0.70;0.60;;;9.70;69.80;;;;;;5114843;28;20532;-73
2022/05/05 05:59:01;;;;;;;0.50;0.50;;;9.70;69.90;;;;;;5114730;28;20168;-73
2022/05/05 06:03:53;;;;;;;1.35;0.70;;;9.70;69.90;;;;;;5080205;28;20439;-73
2022/05/05 06:04:13;;;;;;;0.75;0.60;;;9.70;70.00;;;;;;5099182;28;20558;-73
2022/05/05 06:06:39;;;;;;;1.25;0.75;;;9.80;70.00;;;;;;5096241;28;20040;-73
2022/05/05 06:09:05;;;;;;;0.50;0.50;;;9.80;70.00;;;;;;5114592;28;20034;-73
2022/05/05 06:11:30;;;;;;;0.50;0.43;;;9.90;70.00;;;;;;5114615;28;20560;-73
2022/05/05 06:13:57;;;;;;;0.65;0.50;;;9.90;70.00;;;;;;5114592;28;20040;-73
2022/05/05 06:16:23;;;;;;;0.50;0.50;;;10.00;70.10;;;;;;5115075;28;20035;-73
2022/05/05 06:18:49;;;;;;;0.70;0.60;;;10.10;70.10;;;;;;5114462;28;20078;-72
2022/05/05 06:21:15;;;;;;;0.60;0.60;;;10.10;70.00;;;;;;5114792;28;20031;-72
2022/05/05 06:23:41;;;;;;;0.55;0.50;;;10.20;69.90;;;;;;5096290;28;20051;-72
2022/05/05 06:26:06;;;;;;;1.45;0.75;;;10.20;69.70;;;;;;5096592;28;20043;-72
2022/05/05 06:28:33;;;;;;;1.42;0.80;;;10.30;69.70;;;;;;5114290;28;20035;-73
2022/05/05 06:31:00;;;;;;;0.65;0.60;;;10.40;69.70;;;;;;5114633;28;20185;-72
2022/05/05 06:33:26;;;;;;;1.15;0.77;;;10.50;69.60;;;;;;5114510;28;20581;-73
2022/05/05 06:35:52;;;;;;;1.05;0.60;;;10.50;69.60;;;;;;5095899;28;20116;-72
2022/05/05 06:38:17;;;;;;;0.50;0.50;;;10.60;69.50;;;;;;5115022;28;20039;-73
2022/05/05 06:40:44;;;;;;;0.80;0.60;;;10.70;69.50;;;;;;5079614;28;20040;-72
2022/05/05 06:43:10;;;;;;;0.80;0.63;;;10.70;69.40;;;;;;5079041;28;20108;-73
2022/05/05 06:45:35;;;;;;;0.93;0.70;;;10.80;70.00;;;;;;5114590;28;20505;-73
2022/05/05 06:48:01;;;;;;;0.70;0.60;;;10.80;69.30;;;;;;5114178;28;20489;-73
2022/05/05 06:50:28;;;;;;;0.75;0.75;;;10.90;69.10;;;;;;5095777;28;20055;-72
2022/05/05 06:52:54;;;;;;;1.30;0.77;;;11.00;69.10;;;;;;5114196;28;20040;-73
2022/05/05 06:55:20;;;;;;;1.27;0.90;;;11.10;69.00;;;;;;5095722;28;20046;-72
2022/05/05 06:57:46;;;;;;;0.75;0.65;;;11.10;68.90;;;;;;5114270;28;20467;-72
2022/05/05 07:00:13;;;;;;;1.08;0.60;;;11.10;68.70;;;;;;5113787;28;20397;-72
2022/05/05 07:02:39;;;;;;;1.05;0.80;;;11.30;68.70;;;;;;5095417;28;20451;-73
2022/05/05 07:07:48;;;;;;;0.95;0.57;;;11.50;68.50;;;;;;5113400;28;20054;-72
2022/05/05 07:12:58;;;;;;;1.50;0.75;;;11.70;68.20;;;;;;5113338;28;20066;-73
2022/05/05 07:15:24;;;;;;;0.90;0.70;;;11.80;68.10;;;;;;5113573;28;20461;-73
2022/05/05 07:17:50;;;;;;;0.75;0.60;;;11.90;68.00;;;;;;5114181;28;20032;-73
2022/05/05 07:20:16;;;;;;;1.10;0.90;;;12.10;67.90;;;;;;5095648;28;20599;-73
2022/05/05 07:22:41;;;;;;;0.95;0.70;;;12.30;67.60;;;;;;5113204;28;20047;-72
2022/05/05 07:25:08;;;;;;;1.38;1.00;;;12.40;67.30;;;;;;5095321;28;20493;-73
2022/05/05 07:27:34;;;;;;;0.88;0.70;;;12.60;67.00;;;;;;5114055;28;20118;-73
2022/05/05 07:29:59;;;;;;;1.02;0.80;;;12.80;66.80;;;;;;5113761;28;20528;-73
2022/05/05 07:32:25;;;;;;;2.17;1.00;;;13.00;66.50;;;;;;5113384;28;20035;-73
2022/05/05 07:34:51;;;;;;;1.85;1.13;;;13.30;66.30;;;;;;5111951;28;20073;-73
2022/05/05 07:37:16;;;;;;;0.98;0.90;;;13.40;65.90;;;;;;5112994;28;20065;-73
2022/05/05 07:39:42;;;;;;;1.80;0.80;;;13.60;65.70;;;;;;5113411;28;20537;-72
2022/05/05 07:42:08;;;;;;;1.77;0.95;;;13.80;65.70;;;;;;5113569;28;20426;-73
2022/05/05 07:44:34;;;;;;;1.30;0.90;;;13.90;65.40;;;;;;5095679;28;20039;-73
2022/05/05 07:47:00;;;;;;;1.23;0.90;;;14.10;65.10;;;;;;5112791;28;20047;-73
2022/05/05 07:49:26;;;;;;;1.15;0.98;;;14.40;65.00;;;;;;5113087;28;20121;-73
2022/05/05 07:51:52;;;;;;;2.10;1.27;;;14.30;64.90;;;;;;5113045;28;20503;-73
2022/05/05 07:54:34;;;;;;;2.53;1.20;;;14.50;64.80;;;;;;5094492;28;20131;-73
2022/05/05 07:57:01;;;;;;;2.35;1.30;;;14.40;64.80;;;;;;5097634;28;20051;-73
2022/05/05 07:59:27;;;;;;;3.28;1.20;;;14.50;65.00;;;;;;5094679;28;20038;-73
2022/05/05 08:01:53;;;;;;;1.85;1.30;;;14.60;65.10;;;;;;5113372;28;20381;-73
2022/05/05 08:04:19;;;;;;;2.45;1.33;;;14.60;64.90;;;;;;5113082;28;20040;-73
2022/05/05 08:06:45;;;;;;;1.80;1.00;;;14.70;64.90;;;;;;5112821;28;20047;-73
2022/05/05 08:09:11;;;;;;;1.80;1.30;;;14.80;64.90;;;;;;5077637;28;20046;-73
2022/05/05 08:11:37;;;;;;;1.52;0.90;;;14.80;64.70;;;;;;5112853;28;20035;-73
2022/05/05 08:14:04;;;;;;;2.17;0.70;;;14.90;64.70;;;;;;5112527;28;20481;-73
2022/05/05 08:16:30;;;;;;;1.25;0.90;;;14.90;64.50;;;;;;5077659;28;20039;-73
2022/05/05 08:18:56;;;;;;;1.70;0.80;;;15.10;64.30;;;;;;5094459;28;20052;-73
2022/05/05 08:21:21;;;;;;;0.60;0.60;;;15.20;64.00;;;;;;5113240;28;20044;-73
2022/05/05 08:23:47;;;;;;;1.17;0.85;;;15.30;63.90;;;;;;5077637;28;20401;-73
2022/05/05 08:28:55;;;;;;;1.45;1.02;;;15.40;63.60;;;;;;5096763;28;20072;-73
2022/05/05 08:31:21;;;;;;;1.50;0.80;;;15.50;63.60;;;;;;5060563;28;20426;-73
2022/05/05 08:33:47;;;;;;;1.75;0.88;;;15.60;63.40;;;;;;5112820;28;20043;-73
2022/05/05 08:36:14;;;;;;;1.83;1.05;;;15.80;63.10;;;;;;5094410;28;20047;-73
2022/05/05 08:38:41;;;;;;;1.83;0.95;;;15.90;62.70;;;;;;5112370;28;20132;-73
2022/05/05 08:41:11;;;;;;;1.27;0.90;;;15.90;62.60;;;;;;5093996;28;20481;-74
2022/05/05 08:43:36;;;;;;;1.73;1.08;;;16.10;62.70;;;;;;5112208;28;20039;-73
2022/05/05 08:46:05;;;;;;;3.75;1.52;;;16.20;62.70;;;;;;5114294;28;20419;-73
2022/05/05 08:48:31;;;;;;;2.17;1.45;;;16.20;62.50;;;;;;5114765;28;20136;-73
2022/05/05 08:51:00;;;;;;;2.15;1.20;;;16.30;62.70;;;;;;5097550;28;20044;-73
2022/05/05 08:53:32;;;;;;;2.67;1.40;;;16.30;62.70;;;;;;5116269;28;20122;-73
2022/05/05 08:56:00;;;;;;;2.40;1.25;;;16.50;62.40;;;;;;5115790;28;20035;-73
2022/05/05 08:58:27;;;;;;;1.55;1.13;;;16.60;62.20;;;;;;5097867;28;20043;-73
2022/05/05 09:00:53;;;;;;;2.28;1.40;;;16.60;62.20;;;;;;5115528;28;20143;-73
2022/05/05 09:03:19;;;;;;;1.73;1.27;;;16.60;62.20;;;;;;5097628;28;20511;-73
2022/05/05 09:05:51;;;;;;;2.08;1.42;;;16.60;62.30;;;;;;5115908;28;20040;-73
2022/05/05 09:08:33;;;;;;;1.67;1.05;;;16.60;62.50;;;;;;5115819;28;20031;-73
2022/05/05 09:11:01;;;;;;;1.88;1.15;;;16.60;62.60;;;;;;5115407;28;20040;-73
2022/05/05 09:13:29;;;;;;;1.15;1.00;;;16.80;62.70;;;;;;5080363;28;20433;-73
2022/05/05 09:15:56;;;;;;;2.50;1.60;;;16.90;62.50;;;;;;5097167;28;20046;-73
2022/05/05 09:18:28;;;;;;;2.33;1.40;;;17.00;62.40;;;;;;5097249;28;20039;-72
2022/05/05 09:20:56;;;;;;;1.95;1.40;;;16.90;62.40;;;;;;5115575;28;20042;-73
2022/05/05 09:26:25;;;;;;;1.30;1.00;;;17.10;62.40;;;;;;5115249;28;20036;-72
2022/05/05 09:28:52;;;;;;;1.52;1.10;;;17.20;62.20;;;;;;5115435;28;20028;-72
2022/05/05 09:31:18;;;;;;;1.75;1.20;;;17.40;62.00;;;;;;5097237;28;20146;-73
2022/05/05 09:33:44;;;;;;;4.03;1.70;;;17.60;61.80;;;;;;5097535;28;20131;-73
2022/05/05 09:36:13;;;;;;;1.40;1.08;;;17.50;61.60;;;;;;5115050;28;20492;-73
2022/05/05 09:38:56;;;;;;;1.15;1.05;;;17.40;61.80;;;;;;5097597;28;20097;-73
2022/05/05 09:41:24;;;;;;;2.03;1.17;;;17.40;61.90;;;;;;5113824;28;20046;-72
2022/05/05 09:43:55;;;;;;;1.50;1.20;;;17.50;62.10;;;;;;5115537;28;20050;-73
2022/05/05 09:46:39;;;;;;;2.35;1.27;;;17.60;61.90;;;;;;5113081;28;20044;-73
2022/05/05 09:49:24;;;;;;;1.70;1.20;;;17.80;61.60;;;;;;5115530;28;20445;-73
2022/05/05 09:57:41;;;;;;;3.63;1.67;;;18.00;61.30;;;;;;5096917;28;20062;-73
2022/05/05 10:05:43;;;;;;;2.50;1.33;;;18.00;61.20;;;;;;5098925;28;20126;-73
2022/05/05 10:08:34;;;;;;;2.08;1.30;;;18.10;61.20;;;;;;5097100;28;20036;-73
2022/05/05 10:11:03;;;;;;;1.70;1.40;;;18.10;61.20;;;;;;5113611;28;20024;-73
2022/05/05 10:13:30;;;;;;;1.80;1.10;;;18.20;61.20;;;;;;5079324;28;20045;-73
2022/05/05 10:15:59;;;;;;;4.00;1.98;;;18.20;61.20;;;;;;5096806;28;20042;-73
2022/05/05 10:18:26;;;;;;;1.50;1.33;;;18.40;61.00;;;;;;5113090;28;20035;-73
2022/05/05 10:20:52;;;;;;;2.58;1.50;;;18.50;60.80;;;;;;5114628;28;20034;-72
2022/05/05 10:23:27;;;;;;;2.88;1.88;;;18.40;60.80;;;;;;5096125;28;20043;-73
2022/05/05 10:25:54;;;;;;;3.33;1.50;;;18.50;60.80;;;;;;5097791;28;20058;-73
2022/05/05 10:28:47;;;;;;;4.25;2.00;;;18.50;60.80;;;;;;5114493;28;20039;-73
2022/05/05 10:31:43;;;;;;;2.80;1.70;;;18.50;60.90;;;;;;5113591;28;20028;-73
2022/05/05 10:34:18;;;;;;;2.60;1.60;;;18.50;60.80;;;;;;5114339;28;20048;-72
2022/05/05 10:37:04;;;;;;;2.20;1.33;;;18.60;60.70;;;;;;5094721;28;20046;-73
2022/05/05 10:39:47;;;;;;;2.08;1.38;;;18.70;60.60;;;;;;5094396;28;20035;-72
2022/05/05 10:42:22;;;;;;;2.30;1.45;;;19.00;60.30;;;;;;5112905;28;20469;-73
2022/05/05 10:45:10;;;;;;;3.33;1.92;;;19.10;60.10;;;;;;5114263;28;20039;-73
2022/05/05 10:48:08;;;;;;;2.65;1.40;;;19.20;59.90;;;;;;5113863;28;20058;-73
2022/05/05 10:50:43;;;;;;;2.75;1.50;;;19.20;59.70;;;;;;5114508;28;20071;-73
2022/05/05 10:53:42;;;;;;;1.70;1.38;;;19.10;59.90;;;;;;5097029;28;20048;-71
2022/05/05 10:56:26;;;;;;;2.90;1.70;;;19.20;60.00;;;;;;5113469;28;20048;-71
2022/05/05 10:59:04;;;;;;;2.88;1.55;;;19.20;60.10;;;;;;5113659;28;20039;-73
2022/05/05 11:01:56;;;;;;;2.95;1.50;;;19.20;60.20;;;;;;5096879;28;20119;-73
2022/05/05 11:04:25;;;;;;;2.35;1.65;;;19.20;60.20;;;;;;5113359;28;20039;-73
2022/05/05 11:07:30;;;;;;;2.53;1.80;;;19.30;60.20;;;;;;5113850;28;20047;-72
2022/05/05 11:09:57;;;;;;;2.78;1.40;;;19.30;59.90;;;;;;5096097;28;20039;-73
2022/05/05 11:12:24;;;;;;;1.25;1.05;;;19.40;59.90;;;;;;5113810;28;20517;-73
2022/05/05 11:23:18;;;;;;;2.75;1.48;;;19.50;59.80;;;;;;5113402;28;20043;-73
2022/05/05 11:25:44;;;;;;;1.73;1.13;;;19.70;59.80;;;;;;5113572;28;20063;-73
2022/05/05 11:28:10;;;;;;;1.83;1.30;;;19.70;59.50;;;;;;5113346;28;20051;-73
2022/05/05 11:30:37;;;;;;;4.03;1.70;;;19.70;59.50;;;;;;5113967;28;20084;-73
2022/05/05 11:33:06;;;;;;;2.45;1.33;;;19.70;59.40;;;;;;5113199;28;20040;-73
2022/05/05 11:35:32;;;;;;;3.08;1.40;;;19.70;59.40;;;;;;5094860;28;20100;-73
2022/05/05 11:37:59;;;;;;;4.38;2.20;;;19.90;59.30;;;;;;5112985;28;20039;-72
2022/05/05 11:40:24;;;;;;;3.78;2.17;;;20.00;59.10;;;;;;5113036;28;20086;-73
2022/05/05 11:45:29;;;;;;;2.80;1.77;;;20.00;59.00;;;;;;5113013;28;20127;-73
2022/05/05 11:47:55;;;;;;;2.85;1.90;;;20.10;58.90;;;;;;5113233;28;20397;-73
2022/05/05 11:50:22;;;;;;;2.97;1.70;;;20.40;58.60;;;;;;5094809;28;20104;-73
2022/05/05 11:52:47;;;;;;;4.32;1.80;;;20.40;58.20;;;;;;5093286;28;20043;-72
2022/05/05 11:55:19;;;;;;;4.63;2.30;;;20.30;58.20;;;;;;5112900;28;20122;-73
2022/05/05 11:57:47;;;;;;;4.28;2.22;;;20.20;58.40;;;;;;5095073;28;20031;-73
2022/05/05 12:03:03;;;;;;;4.45;2.10;;;20.00;59.40;;;;;;5097584;28;20047;-73
2022/05/05 12:05:29;;;;;;;3.20;2.13;;;20.10;58.70;;;;;;5113017;28;20039;-72
2022/05/05 12:07:56;;;;;;;3.85;2.10;;;20.20;58.60;;;;;;5113045;28;20534;-71
2022/05/05 12:10:22;;;;;;;2.88;1.73;;;20.30;58.50;;;;;;5094451;28;20035;-73
2022/05/05 12:12:49;;;;;;;2.63;1.70;;;20.30;58.40;;;;;;5113197;28;20126;-73
2022/05/05 12:15:16;;;;;;;4.07;2.22;;;20.30;58.40;;;;;;5112592;28;20073;-73
2022/05/05 12:17:50;;;;;;;3.22;1.85;;;20.30;58.20;;;;;;5112515;28;20039;-73
2022/05/05 12:20:19;;;;;;;3.33;1.90;;;20.40;58.10;;;;;;5048640;28;20041;-73
2022/05/05 12:22:54;;;;;;;2.30;1.60;;;20.40;58.10;;;;;;5049900;28;20434;-73
2022/05/05 12:25:20;;;;;;;6.10;2.67;;;20.40;58.20;;;;;;5049661;28;20044;-73
2022/05/05 12:28:03;;;;;;;3.17;2.05;;;20.50;58.00;;;;;;5050021;28;20052;-73
2022/05/05 12:30:32;;;;;;;3.00;1.77;;;20.30;57.80;;;;;;5049623;28;20045;-73
2022/05/05 12:32:58;;;;;;;1.65;1.23;;;20.30;58.00;;;;;;5033235;28;20402;-73
2022/05/05 12:35:40;;;;;;;2.83;1.20;;;20.30;58.10;;;;;;5033408;28;20049;-73
2022/05/05 12:38:09;;;;;;;2.22;1.23;;;20.40;58.00;;;;;;5049841;28;20044;-73
2022/05/05 12:40:37;;;;;;;3.10;1.80;;;20.40;57.90;;;;;;5033902;28;20037;-73
2022/05/05 12:43:06;;;;;;;3.72;2.05;;;20.50;58.30;;;;;;5050205;28;20099;-74
2022/05/05 12:45:37;;;;;;;3.05;2.10;;;20.40;57.80;;;;;;5049721;28;20119;-73
2022/05/05 12:48:06;;;;;;;3.10;1.67;;;20.50;57.90;;;;;;5049458;28;20177;-72
2022/05/05 12:50:35;;;;;;;2.78;1.65;;;20.40;57.90;;;;;;5064031;28;20032;-73
2022/05/05 13:01:24;;;;;;;1.88;1.30;;;20.10;58.40;;;;;;5096134;28;20047;-72
2022/05/05 13:03:54;;;;;;;3.92;1.77;;;20.10;58.40;;;;;;5111900;28;20382;-71
2022/05/05 13:06:21;;;;;;;3.28;1.80;;;20.10;58.30;;;;;;5111932;28;20044;-71
2022/05/05 13:08:47;;;;;;;2.75;1.67;;;20.10;58.10;;;;;;5112588;28;20131;-71
2022/05/05 13:11:14;;;;;;;3.38;1.83;;;20.20;58.10;;;;;;5112035;28;20050;-73
2022/05/05 13:13:41;;;;;;;2.75;1.40;;;20.20;58.00;;;;;;5093929;28;20059;-71
2022/05/05 13:16:06;;;;;;;2.03;1.40;;;20.30;58.00;;;;;;5093971;28;20043;-71
2022/05/05 13:18:32;;;;;;;2.50;1.70;;;20.40;57.70;;;;;;5111983;28;20131;-73
2022/05/05 13:20:58;;;;;;;2.30;1.63;;;20.50;57.60;;;;;;5093720;28;20040;-73
2022/05/05 13:23:24;;;;;;;1.48;1.10;;;20.40;57.50;;;;;;5093696;28;20096;-73
2022/05/05 13:25:49;;;;;;;1.88;1.40;;;20.40;57.80;;;;;;5111810;28;20067;-73
2022/05/05 13:28:15;;;;;;;1.63;1.30;;;20.50;57.70;;;;;;5112293;28;20044;-73
2022/05/05 13:30:41;;;;;;;2.42;1.50;;;20.50;57.50;;;;;;5112167;28;20077;-73
2022/05/05 13:33:06;;;;;;;2.10;1.50;;;20.60;57.40;;;;;;5113704;28;20439;-73
2022/05/05 13:35:32;;;;;;;3.25;1.95;;;20.60;57.30;;;;;;5115578;28;20126;-73
2022/05/05 13:38:00;;;;;;;2.72;1.65;;;20.60;57.20;;;;;;5115022;28;20122;-73
2022/05/05 13:40:26;;;;;;;2.28;1.60;;;20.60;57.00;;;;;;5115016;28;20032;-73
2022/05/05 13:42:52;;;;;;;2.45;1.60;;;20.50;57.20;;;;;;5115176;28;20050;-74
2022/05/05 13:45:18;;;;;;;3.03;1.70;;;20.60;57.10;;;;;;5115229;28;20043;-73
2022/05/05 13:47:45;;;;;;;2.97;1.70;;;20.60;56.90;;;;;;5115060;28;20031;-73
2022/05/05 13:50:12;;;;;;;3.00;1.70;;;20.60;56.90;;;;;;5096928;28;20047;-73
2022/05/05 13:52:40;;;;;;;2.45;1.40;;;20.70;57.00;;;;;;5096668;28;20067;-73